Fox, OK (73435)

4:34 AM CDT on May 28, 2015 (GMT -0500)
Ratliff City PD | | Change Station
CLOSE
Current Station
Personal Weather Station
Location: Ratliff City, OK
Elevation: 1089 ft
Nearby Weather Stations
Active Advisory: Flood Warning

Elev 1089 ft 34.45 °N, 97.51 °W | Updated 10 minutes ago

Mostly Cloudy
Mostly Cloudy
67.1 °F
Feels Like 67.1 °F
N
2.0
Wind Variable Wind from SE
Gusts 4.0 mph

Today
High -- | Low -- °F
--% Chance of Precip.
Yesterday
High -- | Low -- °F
Precip. -- in
6:20 AM 8:34 PM
Waxing Gibbous, 74% visible
Pressure 30.03 in
Visibility 10.0 miles
Clouds Mostly Cloudy 4800 ft
Dew Point 66 °F
Humidity 96%
Rainfall 0.00 in
Snow Depth Not available.
UV 0 out of 12
Pollen 4.70 out of 12
Air Quality Not available.
Flu Activity Sporadic
METAR K1F0 280910Z AUTO 00000KT 10SM BKN048 20/20 A3003 RMK AO2 LTG DSNT NW

More Conditions Fewer Conditions

Pressure 30.03 in
Visibility 10.0 miles
Clouds Mostly Cloudy 4800 ft
Dew Point 66 °F
Humidity 96%
Rainfall 0.00 in
Snow Depth Not available.
UV 0 out of 12
Pollen 4.70 out of 12
Air Quality Not available.
Flu Activity Sporadic
METAR K1F0 280910Z AUTO 00000KT 10SM BKN048 20/20 A3003 RMK AO2 LTG DSNT NW

More Conditions Fewer Conditions

10-Day Weather Forecast

Almanac

Astronomy

May. 28, 2015 Rise Set
Actual Time
Civil Twilight
Nautical Twilight
Astronomical Twilight
Moon
Length of Visible Light
Length of Day
Tomorrow will be .
, % of the Moon is Illuminated

Today's Extremes

State Highs State Lows

Community

WunderPhotos

Upload Photos

1,824,935 photos uploaded!

WunderBlogs® & News

Nearby

Air Quality

  Air Quality AQ Index Pollutant
Not available.

Snow Depth

Station Depth Elevation

Earthquake Activity

City Distance Mag. Time & Date
Minimum magnitude displayed is 2.5.

Coastal Water Temperatures

Place Temperature

Stations

Nearby Weather Stations

Station Location Temp. Windchill Dew Point Humidity Wind Precip. Elev Updated Type
                   
Flood Warning
Statement as of 4:26 AM CDT on May 28, 2015

The Flood Warning continues for
the Washita river near Dickson

* until further notice... or until the warning is cancelled.

* At 3:30 am Thursday the stage was 33.2 feet.

* Major flooding is occurring.

* Flood stage is 27.0 feet.

* Forecast... the Washita river has crested and will continue to fall
to a stage of 32.4 feet mid Friday morning.



Lat... Lon 3451 9720 3451 9710 3427 9694 3426 9670
      3418 9670 3418 9700